Time;durP1;ratioP1;P1;durP2;ratioP2;P2;SDS_P1;SDS_P2;PMS_P1;PMS_P2;Temp;Humidity;BMP_temperature;BMP_pressure;BME280_temperature;BME280_humidity;BME280_pressure;Samples;Min_cycle;Max_cycle;Signal;HPM_P1;HPM_P2
2021/09/15 09:06:31;;;;;;;35.45;8.50;;;22.00;77.30;;;;;;6257789;27;20642;-37
2021/09/15 09:09:43;;;;;;;34.17;9.13;;;22.00;74.70;;;;;;6254933;28;20360;-40
2021/09/15 09:24:52;;;;;;;32.50;6.72;;;22.00;74.10;;;;;;6326102;28;20028;-40
2021/09/15 09:27:52;;;;;;;23.50;5.72;;;22.00;73.80;;;;;;6320074;28;20032;-37
2021/09/15 09:31:00;;;;;;;22.05;6.95;;;22.00;73.90;;;;;;6318998;28;20024;-35
2021/09/15 09:34:04;;;;;;;18.63;5.60;;;22.00;73.70;;;;;;6318959;28;20028;-40
2021/09/15 09:37:08;;;;;;;16.40;4.90;;;22.10;73.30;;;;;;6319088;28;20032;-36
2021/09/15 09:40:09;;;;;;;19.33;5.70;;;22.20;72.90;;;;;;6320196;28;20021;-32
2021/09/15 09:43:14;;;;;;;22.40;7.53;;;22.10;72.70;;;;;;6319025;28;20032;-40
2021/09/15 09:46:23;;;;;;;19.15;5.38;;;22.20;72.70;;;;;;6319726;28;20032;-35
2021/09/15 09:49:24;;;;;;;20.95;5.35;;;22.20;72.70;;;;;;6318248;28;20059;-39
2021/09/15 09:52:24;;;;;;;15.15;5.13;;;22.10;72.70;;;;;;6319735;28;20021;-37
2021/09/15 09:55:26;;;;;;;11.95;4.45;;;22.10;72.50;;;;;;6318807;28;20047;-37
2021/09/15 09:58:28;;;;;;;14.82;4.78;;;22.10;72.20;;;;;;6319881;28;20411;-35
2021/09/15 10:01:29;;;;;;;13.60;4.72;;;22.10;72.30;;;;;;6317818;28;20032;-37
2021/09/15 10:04:30;;;;;;;8.15;3.75;;;22.10;71.90;;;;;;6317753;28;20059;-33
2021/09/15 10:07:31;;;;;;;9.90;4.10;;;22.10;72.00;;;;;;6301978;28;20447;-35
2021/09/15 10:10:31;;;;;;;12.23;4.53;;;22.10;71.80;;;;;;6318293;28;20077;-36
2021/09/15 10:13:32;;;;;;;15.80;4.50;;;22.10;71.80;;;;;;6317887;28;20036;-40
2021/09/15 10:16:34;;;;;;;9.88;4.47;;;22.10;71.90;;;;;;6308253;28;20086;-39
2021/09/15 10:19:46;;;;;;;7.65;3.80;;;22.10;71.70;;;;;;6302218;28;20025;-41
2021/09/15 10:22:49;;;;;;;7.95;3.75;;;22.10;71.50;;;;;;6283811;28;20025;-39
2021/09/15 10:25:49;;;;;;;7.65;3.28;;;22.10;71.30;;;;;;6301094;28;20025;-34
2021/09/15 10:29:16;;;;;;;8.82;3.90;;;22.10;71.30;;;;;;6299851;28;20039;-38
2021/09/15 10:32:30;;;;;;;7.80;4.40;;;22.10;71.50;;;;;;6302239;28;20452;-40
2021/09/15 10:35:45;;;;;;;8.30;4.03;;;22.20;71.30;;;;;;6300088;28;20371;-39
2021/09/15 10:38:55;;;;;;;7.38;3.90;;;22.20;71.00;;;;;;6301447;28;20036;-41
2021/09/15 10:41:56;;;;;;;8.30;3.58;;;22.20;70.80;;;;;;6300834;28;20025;-36
2021/09/15 10:45:15;;;;;;;14.00;4.50;;;22.20;71.70;;;;;;6301935;28;20031;-31
2021/09/15 10:48:16;;;;;;;10.52;4.57;;;22.20;71.00;;;;;;6299274;28;20044;-41
2021/09/15 10:51:18;;;;;;;8.18;3.70;;;22.20;70.60;;;;;;6300601;28;20052;-36
2021/09/15 10:54:45;;;;;;;7.00;3.72;;;22.20;69.70;;;;;;6301932;28;20529;-41
2021/09/15 10:57:46;;;;;;;7.63;4.03;;;22.20;69.90;;;;;;6301598;28;20107;-41
2021/09/15 11:00:55;;;;;;;9.40;4.40;;;22.20;70.20;;;;;;6305340;28;20023;-36
2021/09/15 11:03:56;;;;;;;5.78;3.30;;;22.20;70.10;;;;;;6329583;28;20083;-36
2021/09/15 11:06:56;;;;;;;6.35;3.58;;;22.20;70.00;;;;;;6345679;28;20340;-40
2021/09/15 11:09:58;;;;;;;12.35;3.60;;;22.20;70.10;;;;;;6307999;28;20082;-39
2021/09/15 11:13:09;;;;;;;6.55;3.63;;;22.30;70.40;;;;;;6326044;28;20522;-39
2021/09/15 11:16:36;;;;;;;8.00;3.80;;;22.30;69.60;;;;;;6325846;28;20031;-42
2021/09/15 11:19:37;;;;;;;8.55;3.45;;;22.30;69.50;;;;;;6322328;28;20036;-36
2021/09/15 11:22:38;;;;;;;6.07;3.40;;;22.30;69.60;;;;;;6308019;28;20077;-38
2021/09/15 11:25:38;;;;;;;10.55;3.40;;;22.30;69.50;;;;;;6339106;28;20397;-43
2021/09/15 11:28:39;;;;;;;8.07;3.38;;;22.30;69.60;;;;;;6348680;28;20024;-39
2021/09/15 11:31:40;;;;;;;4.93;3.10;;;22.40;69.70;;;;;;6317045;28;20384;-42
2021/09/15 11:34:43;;;;;;;7.68;3.60;;;22.40;69.70;;;;;;6351110;28;20469;-43
2021/09/15 11:37:45;;;;;;;5.82;2.92;;;22.40;69.60;;;;;;6349397;28;20020;-36
2021/09/15 11:40:46;;;;;;;5.57;3.40;;;22.40;69.50;;;;;;6332951;28;20106;-38
2021/09/15 11:43:47;;;;;;;8.77;3.25;;;22.40;69.50;;;;;;6331994;28;20034;-40
2021/09/15 11:46:48;;;;;;;6.05;3.13;;;22.40;69.50;;;;;;6350922;28;20093;-39
2021/09/15 11:49:48;;;;;;;4.55;3.08;;;22.40;69.40;;;;;;6314471;28;20453;-36
2021/09/15 11:52:56;;;;;;;6.43;3.08;;;22.30;69.40;;;;;;6333004;28;20039;-35
2021/09/15 11:56:03;;;;;;;4.15;2.90;;;22.40;69.30;;;;;;6349976;28;20027;-36
2021/09/15 11:59:04;;;;;;;4.93;3.20;;;22.30;69.20;;;;;;6350478;28;20039;-39
2021/09/15 12:02:05;;;;;;;5.20;3.20;;;22.30;69.30;;;;;;6349493;28;20051;-37
2021/09/15 12:05:06;;;;;;;5.40;2.97;;;22.30;69.30;;;;;;6350620;28;20047;-37
2021/09/15 12:08:06;;;;;;;5.35;3.30;;;22.30;69.30;;;;;;6331638;28;20439;-38
2021/09/15 12:11:07;;;;;;;4.85;3.13;;;22.30;69.30;;;;;;6350958;28;20058;-38
2021/09/15 12:14:09;;;;;;;5.63;3.50;;;22.30;69.40;;;;;;6332195;28;20028;-37
2021/09/15 12:17:10;;;;;;;4.85;3.15;;;22.30;69.30;;;;;;6349315;28;20039;-40
2021/09/15 12:20:11;;;;;;;5.57;3.33;;;22.20;69.30;;;;;;6331493;28;20347;-39
2021/09/15 12:23:12;;;;;;;5.22;3.67;;;22.20;69.30;;;;;;6349149;28;20032;-37
2021/09/15 12:26:12;;;;;;;4.82;3.13;;;22.30;69.20;;;;;;6350051;28;20028;-37
2021/09/15 12:29:18;;;;;;;9.20;3.70;;;22.20;69.30;;;;;;6348809;28;20024;-35
2021/09/15 12:32:18;;;;;;;5.20;3.63;;;22.30;69.30;;;;;;6350154;28;20016;-37
2021/09/15 12:35:34;;;;;;;5.60;3.60;;;22.30;69.30;;;;;;6314202;28;20092;-35
2021/09/15 12:38:50;;;;;;;6.15;3.58;;;22.30;69.20;;;;;;6349115;28;20031;-35
2021/09/15 12:41:52;;;;;;;3.88;3.33;;;22.30;69.30;;;;;;6349090;28;20070;-40
2021/09/15 12:45:05;;;;;;;4.65;3.13;;;22.30;69.20;;;;;;6349815;28;20027;-34
2021/09/15 12:48:14;;;;;;;5.70;3.85;;;22.30;69.20;;;;;;6348865;28;20020;-44
2021/09/15 12:51:22;;;;;;;4.47;3.13;;;22.30;69.10;;;;;;6349529;28;20352;-40
2021/09/15 12:54:23;;;;;;;4.68;3.42;;;22.30;69.00;;;;;;6350159;28;20020;-37
2021/09/15 12:57:31;;;;;;;6.05;3.35;;;22.30;68.90;;;;;;6330222;28;20074;-40
2021/09/15 13:00:45;;;;;;;6.10;3.83;;;22.30;69.00;;;;;;6349542;28;20051;-36
2021/09/15 13:03:49;;;;;;;5.60;3.60;;;22.30;69.00;;;;;;6347902;28;20485;-38
2021/09/15 13:06:49;;;;;;;6.95;4.25;;;22.20;69.00;;;;;;6349686;28;20323;-39
2021/09/15 13:09:50;;;;;;;4.10;3.38;;;22.20;68.90;;;;;;6329525;28;20024;-40
2021/09/15 13:12:51;;;;;;;6.05;3.75;;;22.20;68.80;;;;;;6349629;28;20462;-38
2021/09/15 13:15:52;;;;;;;5.53;4.00;;;22.20;68.80;;;;;;6348183;28;20035;-39
2021/09/15 13:18:52;;;;;;;4.63;3.50;;;22.20;68.80;;;;;;6348956;28;20032;-39
2021/09/15 13:21:53;;;;;;;5.22;3.80;;;22.20;68.70;;;;;;6348748;28;20108;-37
2021/09/15 13:24:54;;;;;;;4.70;3.88;;;22.20;68.70;;;;;;6349162;28;20037;-43
2021/09/15 13:27:54;;;;;;;5.28;3.83;;;22.20;68.80;;;;;;6348992;28;20038;-38
2021/09/15 13:30:55;;;;;;;5.25;3.72;;;22.20;68.80;;;;;;6348133;28;20458;-42
2021/09/15 13:33:55;;;;;;;6.35;4.68;;;22.20;68.80;;;;;;6349398;28;20100;-38
2021/09/15 13:36:56;;;;;;;6.30;3.92;;;22.20;68.80;;;;;;6348088;28;20098;-40
2021/09/15 13:39:58;;;;;;;5.85;4.00;;;22.20;68.80;;;;;;6348760;28;20039;-38
2021/09/15 13:42:59;;;;;;;4.75;3.63;;;22.20;68.80;;;;;;6348307;28;20036;-39
2021/09/15 13:46:03;;;;;;;4.93;3.92;;;22.20;68.90;;;;;;6349116;28;20485;-36
2021/09/15 13:49:04;;;;;;;5.00;3.67;;;22.10;68.80;;;;;;6330448;28;20403;-39
2021/09/15 13:52:09;;;;;;;4.32;3.70;;;22.20;68.90;;;;;;6351845;28;20031;-37
2021/09/15 13:55:10;;;;;;;4.40;3.72;;;22.10;68.80;;;;;;6353050;28;20019;-36
2021/09/15 13:58:10;;;;;;;4.97;3.80;;;22.10;68.80;;;;;;6352962;28;20111;-40
2021/09/15 14:01:11;;;;;;;4.82;4.00;;;22.10;68.80;;;;;;6354138;28;20031;-39
2021/09/15 14:04:11;;;;;;;4.40;4.00;;;22.10;68.80;;;;;;6333932;28;20035;-33
2021/09/15 14:07:12;;;;;;;6.80;4.30;;;22.10;68.80;;;;;;6353621;28;20049;-43
2021/09/15 14:10:12;;;;;;;4.72;4.13;;;22.10;68.80;;;;;;6352331;28;20366;-40
2021/09/15 14:13:13;;;;;;;5.35;4.05;;;22.10;68.80;;;;;;6353457;28;20359;-37
2021/09/15 14:16:13;;;;;;;5.57;4.28;;;22.00;69.00;;;;;;6352063;28;20074;-38
2021/09/15 14:19:14;;;;;;;6.93;4.53;;;22.00;69.00;;;;;;6352774;28;20035;-40
2021/09/15 14:22:15;;;;;;;6.68;4.28;;;22.10;69.00;;;;;;6352150;28;20031;-39
2021/09/15 14:25:16;;;;;;;6.53;3.83;;;22.00;69.00;;;;;;6353178;28;20028;-39
2021/09/15 14:28:16;;;;;;;4.13;3.65;;;22.00;68.90;;;;;;6351268;28;20036;-37
2021/09/15 14:31:17;;;;;;;4.70;3.97;;;22.00;68.90;;;;;;6331122;28;20024;-37
2021/09/15 14:34:17;;;;;;;5.47;4.13;;;22.00;68.80;;;;;;6327668;28;20098;-36
2021/09/15 14:37:18;;;;;;;5.13;3.80;;;22.00;68.70;;;;;;6326027;28;20028;-36
2021/09/15 14:40:18;;;;;;;5.40;4.25;;;22.00;68.80;;;;;;6327103;28;20023;-40
2021/09/15 14:43:19;;;;;;;8.15;4.30;;;22.00;68.70;;;;;;6326518;28;20065;-38
2021/09/15 14:46:20;;;;;;;6.75;4.50;;;22.00;68.80;;;;;;6327013;28;20031;-38
2021/09/15 14:49:20;;;;;;;5.25;3.90;;;22.00;68.80;;;;;;6325473;28;20035;-39
2021/09/15 14:52:21;;;;;;;6.80;4.53;;;22.00;68.80;;;;;;6309306;28;20054;-41
2021/09/15 14:55:21;;;;;;;5.03;3.83;;;22.00;68.80;;;;;;6325859;28;20433;-34
2021/09/15 14:58:22;;;;;;;5.88;4.65;;;22.00;68.80;;;;;;6326418;28;20520;-39
2021/09/15 15:01:23;;;;;;;5.05;4.22;;;22.10;68.80;;;;;;6309012;28;20035;-36
2021/09/15 15:04:23;;;;;;;4.45;3.95;;;22.10;68.70;;;;;;6325884;28;20178;-41
2021/09/15 15:07:24;;;;;;;5.13;4.63;;;22.00;68.70;;;;;;6326140;28;20492;-37
2021/09/15 15:10:25;;;;;;;5.32;4.70;;;22.10;68.70;;;;;;6326029;28;20054;-35
2021/09/15 15:13:25;;;;;;;5.15;4.57;;;22.10;68.70;;;;;;6326569;28;20047;-38
2021/09/15 15:16:26;;;;;;;5.30;4.13;;;22.10;68.70;;;;;;6325768;28;20046;-40
2021/09/15 15:19:26;;;;;;;5.57;4.63;;;22.10;68.70;;;;;;6325773;28;20028;-33
2021/09/15 15:22:32;;;;;;;4.63;4.13;;;22.10;68.70;;;;;;6325589;28;20028;-35
2021/09/15 15:25:32;;;;;;;;;;;22.10;68.70;;;;;;6326637;28;20067;-33
2021/09/15 15:28:33;;;;;;;7.28;5.20;;;22.10;68.60;;;;;;6324921;28;20338;-39
2021/09/15 15:31:34;;;;;;;7.82;4.38;;;22.10;68.60;;;;;;6325794;28;20093;-39
2021/09/15 15:34:34;;;;;;;5.45;4.50;;;22.10;68.70;;;;;;6326280;28;20055;-39
2021/09/15 15:37:35;;;;;;;5.72;4.30;;;22.20;68.70;;;;;;6324077;28;20062;-39
2021/09/15 15:40:36;;;;;;;5.15;4.47;;;22.20;68.70;;;;;;6325959;28;20032;-35
2021/09/15 15:43:37;;;;;;;6.38;5.07;;;22.20;68.80;;;;;;6324625;28;20020;-39
2021/09/15 15:46:38;;;;;;;4.93;4.43;;;22.20;68.80;;;;;;6325825;28;20339;-40
2021/09/15 15:49:39;;;;;;;4.82;4.30;;;22.20;69.50;;;;;;6324337;28;20028;-36
2021/09/15 15:52:41;;;;;;;5.57;4.55;;;22.20;68.90;;;;;;6307897;28;20394;-32
2021/09/15 15:55:47;;;;;;;6.15;4.25;;;22.20;68.70;;;;;;6324292;28;20355;-42
2021/09/15 15:58:49;;;;;;;5.72;4.70;;;22.30;69.00;;;;;;6325417;28;20028;-41
2021/09/15 16:01:51;;;;;;;6.55;4.68;;;22.30;68.80;;;;;;6307382;28;20232;-34
2021/09/15 16:04:52;;;;;;;5.15;4.47;;;22.30;68.70;;;;;;6325105;28;20359;-40
2021/09/15 16:07:52;;;;;;;5.13;4.63;;;22.30;68.70;;;;;;6324728;28;20020;-38
2021/09/15 16:10:54;;;;;;;5.85;4.35;;;22.30;68.70;;;;;;6289840;28;20030;-35
2021/09/15 16:13:54;;;;;;;5.05;4.32;;;22.30;68.80;;;;;;6324610;28;20024;-40
2021/09/15 16:16:55;;;;;;;6.22;4.75;;;22.30;68.70;;;;;;6323737;28;20439;-37
2021/09/15 16:19:55;;;;;;;5.45;4.80;;;22.30;68.60;;;;;;6306890;28;20031;-39
2021/09/15 16:22:56;;;;;;;4.88;4.40;;;22.40;68.50;;;;;;6324237;28;20024;-38
2021/09/15 16:25:57;;;;;;;6.05;4.38;;;22.50;68.40;;;;;;6306810;28;20031;-40
2021/09/15 16:28:57;;;;;;;5.35;4.85;;;22.50;68.30;;;;;;6323063;28;20469;-37
2021/09/15 16:31:58;;;;;;;4.85;4.32;;;22.50;68.20;;;;;;6324457;28;20473;-43
2021/09/15 16:34:58;;;;;;;5.85;4.65;;;22.40;68.20;;;;;;6323816;28;20451;-38
2021/09/15 16:37:59;;;;;;;5.13;4.63;;;22.40;68.20;;;;;;6324355;28;20070;-41
2021/09/15 16:40:59;;;;;;;6.75;4.53;;;22.30;68.40;;;;;;6324666;28;20031;-40
2021/09/15 16:44:00;;;;;;;5.22;4.68;;;22.30;68.40;;;;;;6323294;28;20040;-37
2021/09/15 16:47:00;;;;;;;6.30;4.65;;;22.20;68.40;;;;;;6324175;28;20137;-38
2021/09/15 16:50:01;;;;;;;5.20;4.70;;;22.20;68.50;;;;;;6323524;28;20024;-34
2021/09/15 16:53:02;;;;;;;5.78;5.10;;;22.20;68.50;;;;;;6324875;28;20048;-37
2021/09/15 16:56:03;;;;;;;5.20;4.70;;;22.30;68.60;;;;;;6323179;28;20028;-36
2021/09/15 16:59:04;;;;;;;5.50;4.93;;;22.30;68.50;;;;;;6323907;28;20039;-38
2021/09/15 17:02:04;;;;;;;6.28;4.88;;;22.30;68.30;;;;;;6323448;28;20020;-35
2021/09/15 17:05:05;;;;;;;5.85;5.25;;;22.30;68.30;;;;;;6298239;28;20083;-34
2021/09/15 17:08:06;;;;;;;5.60;5.10;;;22.30;68.40;;;;;;6298236;28;20035;-42
2021/09/15 17:11:06;;;;;;;5.60;5.05;;;22.30;68.40;;;;;;6299564;28;20052;-35
2021/09/15 17:14:07;;;;;;;4.97;4.47;;;22.20;68.40;;;;;;6299079;28;20081;-35
2021/09/15 17:17:07;;;;;;;7.00;4.90;;;22.20;68.50;;;;;;6297804;28;20483;-34
2021/09/15 17:20:09;;;;;;;5.60;4.93;;;22.20;68.50;;;;;;6298294;28;20036;-37
2021/09/15 17:23:10;;;;;;;5.75;5.15;;;22.20;68.60;;;;;;6298181;28;20070;-39
2021/09/15 17:26:11;;;;;;;5.53;4.90;;;22.20;68.60;;;;;;6300199;28;20485;-34
2021/09/15 17:29:11;;;;;;;6.03;4.50;;;22.20;68.60;;;;;;6302874;28;20025;-40
2021/09/15 17:32:12;;;;;;;6.25;5.10;;;22.20;68.60;;;;;;6302903;28;20021;-34
2021/09/15 17:35:12;;;;;;;6.13;4.53;;;22.20;68.70;;;;;;6301568;28;20020;-42
2021/09/15 17:38:13;;;;;;;5.63;5.03;;;22.10;68.60;;;;;;6303312;28;20024;-35
2021/09/15 17:41:14;;;;;;;6.22;4.72;;;22.10;68.70;;;;;;6302784;28;20029;-41
2021/09/15 17:44:14;;;;;;;5.93;5.15;;;22.10;68.80;;;;;;6302358;28;20028;-37
2021/09/15 17:47:15;;;;;;;6.30;5.05;;;22.10;68.80;;;;;;6303419;28;20020;-44
2021/09/15 17:50:15;;;;;;;6.72;5.30;;;22.10;68.90;;;;;;6302387;28;20051;-39
2021/09/15 17:53:16;;;;;;;6.82;6.07;;;22.00;68.90;;;;;;6303403;28;20024;-38
2021/09/15 17:56:16;;;;;;;6.15;5.53;;;22.00;68.90;;;;;;6302020;28;20126;-38
2021/09/15 17:59:17;;;;;;;6.18;5.13;;;22.00;69.00;;;;;;6302017;28;20049;-35
2021/09/15 18:02:18;;;;;;;5.53;4.90;;;22.00;68.90;;;;;;6301980;28;20142;-38
2021/09/15 18:05:18;;;;;;;5.57;5.07;;;22.00;68.70;;;;;;6319037;28;20123;-39
2021/09/15 18:08:19;;;;;;;6.93;5.07;;;22.00;68.80;;;;;;6326151;28;20443;-39
2021/09/15 18:11:19;;;;;;;5.75;4.80;;;22.00;68.80;;;;;;6328229;28;20354;-40
2021/09/15 18:14:20;;;;;;;8.38;5.15;;;22.00;68.70;;;;;;6327931;28;20451;-39
2021/09/15 18:17:20;;;;;;;7.07;4.85;;;22.00;68.80;;;;;;6327259;28;20028;-40
2021/09/15 18:20:21;;;;;;;6.72;4.60;;;22.10;68.90;;;;;;6324321;28;20040;-40
2021/09/15 18:23:24;;;;;;;6.25;5.00;;;22.10;69.00;;;;;;6324503;28;20024;-35
2021/09/15 18:26:24;;;;;;;6.90;5.32;;;22.10;69.00;;;;;;6325061;28;20032;-39
2021/09/15 18:29:25;;;;;;;9.60;4.90;;;22.20;68.60;;;;;;6323884;28;20412;-39
2021/09/15 18:32:28;;;;;;;5.88;4.82;;;22.30;68.30;;;;;;6324637;28;20359;-39
2021/09/15 18:35:29;;;;;;;5.20;4.45;;;22.40;68.30;;;;;;6322466;28;20500;-39
2021/09/15 18:38:29;;;;;;;8.07;5.50;;;22.30;68.30;;;;;;6324153;28;20020;-41
2021/09/15 18:41:30;;;;;;;7.68;4.80;;;22.40;68.40;;;;;;6323791;28;20500;-36
2021/09/15 18:44:30;;;;;;;8.10;4.80;;;22.30;68.40;;;;;;6324188;28;20107;-41
2021/09/15 18:47:31;;;;;;;6.07;4.95;;;22.40;68.60;;;;;;6324363;28;20355;-41
2021/09/15 18:50:32;;;;;;;5.25;4.75;;;22.40;68.70;;;;;;6323787;28;20391;-43
2021/09/15 18:53:33;;;;;;;8.70;5.78;;;22.40;68.80;;;;;;6324566;28;20351;-43
2021/09/15 18:56:34;;;;;;;6.60;4.75;;;22.40;69.00;;;;;;6322928;28;20028;-39
2021/09/15 18:59:38;;;;;;;5.82;4.57;;;22.40;69.10;;;;;;6324140;28;20032;-39
2021/09/15 19:02:39;;;;;;;7.15;4.93;;;22.40;69.10;;;;;;6323303;28;20085;-35
2021/09/15 19:05:39;;;;;;;5.35;4.50;;;22.50;69.00;;;;;;6323566;28;20044;-40
2021/09/15 19:08:41;;;;;;;6.03;4.85;;;22.50;69.00;;;;;;6322698;28;20046;-37
2021/09/15 19:11:41;;;;;;;7.07;5.00;;;22.50;69.10;;;;;;6323987;28;20043;-41
2021/09/15 19:14:42;;;;;;;8.60;5.20;;;22.50;69.00;;;;;;6303862;28;20068;-42
2021/09/15 19:17:42;;;;;;;6.57;5.30;;;22.50;69.00;;;;;;6297727;28;20021;-41
2021/09/15 19:20:47;;;;;;;9.90;5.00;;;22.60;68.60;;;;;;6297145;28;20127;-41
2021/09/15 19:23:49;;;;;;;7.80;4.60;;;22.60;68.90;;;;;;6297585;28;20055;-36
2021/09/15 19:26:49;;;;;;;7.43;5.10;;;22.50;68.70;;;;;;6181626;28;24449;-36
2021/09/15 19:29:50;;;;;;;6.80;4.95;;;22.50;68.90;;;;;;6313592;28;20016;-38
2021/09/15 19:32:50;;;;;;;9.18;4.88;;;22.50;69.10;;;;;;6318945;28;20043;-42
2021/09/15 19:35:51;;;;;;;5.80;4.93;;;22.60;69.10;;;;;;6320752;28;20047;-35
2021/09/15 19:38:52;;;;;;;6.40;5.07;;;22.50;69.10;;;;;;6320958;28;20028;-38
2021/09/15 19:41:52;;;;;;;6.32;4.65;;;22.60;69.10;;;;;;6318815;28;20028;-35
2021/09/15 19:44:53;;;;;;;6.55;4.88;;;22.60;69.10;;;;;;6322758;28;20473;-37
2021/09/15 19:47:54;;;;;;;6.78;4.88;;;22.60;69.20;;;;;;6321604;28;20054;-36
2021/09/15 19:50:54;;;;;;;5.72;4.97;;;22.60;69.10;;;;;;6320417;28;20027;-40
2021/09/15 19:53:55;;;;;;;5.88;4.43;;;22.60;69.10;;;;;;6321643;28;20043;-34
2021/09/15 19:56:55;;;;;;;11.70;4.75;;;22.50;69.10;;;;;;6319823;28;20024;-43
2021/09/15 19:59:56;;;;;;;5.63;4.60;;;22.50;69.30;;;;;;6318502;28;20340;-38
2021/09/15 20:02:57;;;;;;;9.25;5.25;;;22.50;69.20;;;;;;6321437;28;20035;-39
2021/09/15 20:05:57;;;;;;;7.28;5.03;;;22.50;69.10;;;;;;6322602;28;20044;-41
2021/09/15 20:08:58;;;;;;;9.82;5.68;;;22.60;68.50;;;;;;6320936;28;20355;-39
2021/09/15 20:11:58;;;;;;;8.40;5.38;;;22.70;68.40;;;;;;6322255;28;20385;-43
2021/09/15 20:14:59;;;;;;;7.07;5.35;;;22.70;68.30;;;;;;6319495;28;20034;-36
2021/09/15 20:18:00;;;;;;;5.95;4.60;;;22.70;68.60;;;;;;6322033;28;20088;-36
2021/09/15 20:21:00;;;;;;;7.53;4.93;;;22.70;68.30;;;;;;6321815;28;20043;-43
2021/09/15 20:24:01;;;;;;;6.95;4.90;;;22.70;68.40;;;;;;6321179;28;20593;-40
2021/09/15 20:27:01;;;;;;;6.13;4.90;;;22.70;68.70;;;;;;6321661;28;20024;-35
2021/09/15 20:30:03;;;;;;;7.35;5.18;;;22.70;69.00;;;;;;6321044;28;20646;-34
2021/09/15 20:33:03;;;;;;;7.80;5.20;;;22.70;69.10;;;;;;6320691;28;20048;-36
2021/09/15 20:36:04;;;;;;;8.13;5.38;;;22.70;69.20;;;;;;6321079;28;20104;-38
2021/09/15 20:39:05;;;;;;;6.78;4.63;;;22.60;69.40;;;;;;6321416;28;20055;-37
2021/09/15 20:42:05;;;;;;;15.18;5.32;;;22.60;69.10;;;;;;6320984;28;20421;-41
2021/09/15 20:45:06;;;;;;;6.63;4.47;;;22.70;69.20;;;;;;6321144;28;20130;-36
2021/09/15 20:48:07;;;;;;;8.13;5.13;;;22.60;69.10;;;;;;6320979;28;20024;-34
2021/09/15 20:51:08;;;;;;;6.55;4.82;;;22.60;69.20;;;;;;6320933;28;20101;-35
2021/09/15 20:54:08;;;;;;;7.10;4.90;;;22.60;69.50;;;;;;6320993;28;20048;-35
2021/09/15 20:57:09;;;;;;;6.93;4.90;;;22.60;69.50;;;;;;6301923;28;20024;-39
2021/09/15 21:00:11;;;;;;;6.25;4.60;;;22.60;69.60;;;;;;6317692;28;20028;-40
2021/09/15 21:03:11;;;;;;;11.98;5.97;;;22.60;69.40;;;;;;6301712;28;20111;-39
2021/09/15 21:06:12;;;;;;;6.03;4.90;;;22.60;69.60;;;;;;6320148;28;20039;-32
2021/09/15 21:09:13;;;;;;;6.35;4.70;;;22.60;69.50;;;;;;6293723;28;20036;-36
2021/09/15 21:12:13;;;;;;;8.05;5.43;;;22.60;69.60;;;;;;6296430;28;20029;-39
2021/09/15 21:15:14;;;;;;;9.00;5.13;;;22.60;69.50;;;;;;6300549;28;20107;-40
2021/09/15 21:18:14;;;;;;;7.88;4.82;;;22.70;69.50;;;;;;6320469;28;20064;-39
2021/09/15 21:21:15;;;;;;;8.02;5.75;;;22.70;69.20;;;;;;6295363;28;20098;-42
2021/09/15 21:24:15;;;;;;;8.63;5.82;;;22.70;69.10;;;;;;6307626;28;20043;-34
2021/09/15 21:27:16;;;;;;;8.18;4.88;;;22.70;69.00;;;;;;6320016;28;20031;-40
2021/09/15 21:30:19;;;;;;;5.95;4.80;;;22.70;69.00;;;;;;6319590;28;20022;-39
2021/09/15 21:33:20;;;;;;;6.82;5.55;;;22.70;69.20;;;;;;6320262;28;20028;-36
2021/09/15 21:36:20;;;;;;;6.15;5.00;;;22.70;69.40;;;;;;6320117;28;20108;-41
2021/09/15 21:39:21;;;;;;;6.35;5.13;;;22.70;69.50;;;;;;6321683;28;20028;-33
2021/09/15 21:42:22;;;;;;;7.03;5.30;;;22.60;69.50;;;;;;6320242;28;20816;-31
2021/09/15 21:45:22;;;;;;;6.82;5.07;;;22.60;69.50;;;;;;6321580;28;20039;-36
2021/09/15 21:48:23;;;;;;;7.65;5.50;;;22.60;69.70;;;;;;6320480;28;20433;-37
2021/09/15 21:51:24;;;;;;;9.40;5.40;;;22.60;69.60;;;;;;6321303;28;20034;-39
2021/09/15 21:54:24;;;;;;;8.02;5.20;;;22.60;69.60;;;;;;6321133;28;20727;-42
2021/09/15 21:57:25;;;;;;;7.45;5.47;;;22.60;69.50;;;;;;6319966;28;20105;-40
2021/09/15 22:00:45;;;;;;;10.02;5.47;;;22.60;69.60;;;;;;6320715;28;20064;-31
2021/09/15 22:03:46;;;;;;;6.97;5.43;;;22.60;69.50;;;;;;6319398;28;20024;-41
2021/09/15 22:06:46;;;;;;;7.70;5.10;;;22.60;69.60;;;;;;6322756;28;20055;-43
2021/09/15 22:09:47;;;;;;;7.25;5.85;;;22.50;69.40;;;;;;6323391;28;20021;-39
2021/09/15 22:12:48;;;;;;;7.22;5.50;;;22.50;69.00;;;;;;6327026;28;20021;-35
2021/09/15 22:15:48;;;;;;;6.90;5.40;;;22.50;68.80;;;;;;6327732;28;20063;-33
2021/09/15 22:18:49;;;;;;;8.13;5.90;;;22.40;68.80;;;;;;6328159;28;20105;-39
2021/09/15 22:21:50;;;;;;;8.38;5.97;;;22.30;68.80;;;;;;6327682;28;20024;-33
2021/09/15 22:24:51;;;;;;;7.53;6.38;;;22.30;69.00;;;;;;6328151;28;20036;-36
2021/09/15 22:27:51;;;;;;;9.73;6.80;;;22.30;68.80;;;;;;6327847;28;20355;-36
2021/09/15 22:30:52;;;;;;;8.57;6.63;;;22.30;68.70;;;;;;6327780;28;20035;-36
2021/09/15 22:33:53;;;;;;;7.38;6.18;;;22.30;68.70;;;;;;6328737;28;20070;-33
2021/09/15 22:36:54;;;;;;;10.45;7.03;;;22.30;68.60;;;;;;6327011;28;20032;-35
2021/09/15 22:39:54;;;;;;;9.32;6.50;;;22.30;68.70;;;;;;6328032;28;20098;-39
2021/09/15 22:42:55;;;;;;;8.10;6.10;;;22.20;68.60;;;;;;6327044;28;20121;-39
2021/09/15 22:45:56;;;;;;;7.28;6.30;;;22.20;68.60;;;;;;6328069;28;20052;-39
2021/09/15 22:48:56;;;;;;;8.73;6.00;;;22.20;68.50;;;;;;6327010;28;20377;-40
2021/09/15 22:51:57;;;;;;;7.85;6.18;;;22.20;68.60;;;;;;6328104;28;20058;-37
2021/09/15 22:54:57;;;;;;;9.38;6.57;;;22.20;68.70;;;;;;6319507;28;20102;-31
2021/09/15 22:57:58;;;;;;;12.57;6.78;;;22.10;68.70;;;;;;6302347;28;20106;-37
2021/09/15 23:00:59;;;;;;;7.25;5.80;;;22.10;68.60;;;;;;6302751;28;20379;-38
2021/09/15 23:04:00;;;;;;;8.10;6.35;;;22.10;68.60;;;;;;6301560;28;20116;-40
2021/09/15 23:07:00;;;;;;;10.43;6.82;;;22.10;68.60;;;;;;6301857;28;20048;-41
2021/09/15 23:10:02;;;;;;;8.38;6.60;;;22.10;68.80;;;;;;6301430;28;20427;-38
2021/09/15 23:13:02;;;;;;;8.80;6.70;;;22.00;68.80;;;;;;6302132;28;20458;-35
2021/09/15 23:16:03;;;;;;;8.32;6.40;;;22.00;69.00;;;;;;6300953;28;20036;-40
2021/09/15 23:19:05;;;;;;;9.48;6.45;;;22.00;69.00;;;;;;6301865;28;20025;-38
2021/09/15 23:22:06;;;;;;;7.72;6.82;;;21.90;69.00;;;;;;6301433;28;20028;-39
2021/09/15 23:25:07;;;;;;;9.02;6.97;;;21.90;69.20;;;;;;6310308;28;20107;-37
2021/09/15 23:28:07;;;;;;;7.00;6.00;;;21.80;69.10;;;;;;6308317;28;20435;-44
2021/09/15 23:31:08;;;;;;;6.75;5.95;;;21.80;69.20;;;;;;6326684;28;20443;-38
2021/09/15 23:34:09;;;;;;;8.48;6.35;;;21.80;69.20;;;;;;6327141;28;20032;-39
2021/09/15 23:37:09;;;;;;;7.10;6.20;;;21.70;69.30;;;;;;6325507;28;20024;-41
2021/09/15 23:40:10;;;;;;;9.13;6.65;;;21.70;69.50;;;;;;6326933;28;20047;-41
2021/09/15 23:43:11;;;;;;;7.93;6.70;;;21.70;69.40;;;;;;6325518;28;20036;-38
2021/09/15 23:46:12;;;;;;;7.53;6.53;;;21.70;69.40;;;;;;6310175;28;20028;-39
2021/09/15 23:49:12;;;;;;;7.95;6.18;;;21.70;69.40;;;;;;6300232;28;20024;-38
2021/09/15 23:52:13;;;;;;;6.80;6.10;;;21.70;69.40;;;;;;6301420;28;20036;-36
2021/09/15 23:55:14;;;;;;;7.57;6.28;;;21.60;69.40;;;;;;6300280;28;20479;-40
2021/09/15 23:58:14;;;;;;;7.25;6.10;;;21.60;69.40;;;;;;6300619;28;20037;-40
